Time;durP1;ratioP1;P1;durP2;ratioP2;P2;SDS_P1;SDS_P2;PMS_P1;PMS_P2;Temp;Humidity;BMP_temperature;BMP_pressure;BME280_temperature;BME280_humidity;BME280_pressure;Samples;Min_cycle;Max_cycle;Signal;HPM_P1;HPM_P2
2022/12/03 00:01:19;;;;;;;;;;;2.90;99.90;;;;;;5061329;28;19965;-73
2022/12/03 00:03:45;;;;;;;;;;;2.80;99.90;;;;;;5062010;28;20364;-73
2022/12/03 00:06:10;;;;;;;;;;;2.70;99.90;;;;;;5063205;28;19928;-73
2022/12/03 00:08:36;;;;;;;;;;;2.60;99.90;;;;;;5059382;28;19921;-71
2022/12/03 00:11:01;;;;;;;;;;;2.60;99.90;;;;;;5061011;28;20718;-72
2022/12/03 00:13:27;;;;;;;;;;;2.50;99.90;;;;;;5065464;28;20033;-72
2022/12/03 00:15:55;;;;;;;;;;;2.50;99.90;;;;;;5060646;28;19979;-72
2022/12/03 00:18:21;;;;;;;;;;;2.40;99.90;;;;;;5065881;28;19925;-72
2022/12/03 00:20:46;;;;;;;;;;;2.30;99.90;;;;;;5064930;28;20286;-72
2022/12/03 00:23:12;;;;;;;;;;;2.30;99.90;;;;;;5062074;28;19966;-72
2022/12/03 00:25:37;;;;;;;;;;;2.30;99.90;;;;;;5058943;28;19967;-72
2022/12/03 00:28:03;;;;;;;;;;;2.20;99.90;;;;;;5064579;28;19963;-72
2022/12/03 00:30:28;;;;;;;;;;;2.20;99.90;;;;;;5064483;28;20375;-72
2022/12/03 00:32:54;;;;;;;;;;;2.20;99.90;;;;;;5061876;28;20396;-72
2022/12/03 00:35:19;;;;;;;;;;;2.20;99.90;;;;;;5064517;28;19927;-71
2022/12/03 00:37:45;;;;;;;;;;;2.20;99.90;;;;;;5062000;28;19920;-72
2022/12/03 00:40:10;;;;;;;;;;;2.20;99.90;;;;;;5061275;28;20441;-72
2022/12/03 00:42:36;;;;;;;;;;;2.20;99.90;;;;;;5064150;28;19973;-72
2022/12/03 00:45:04;;;;;;;;;;;2.20;99.90;;;;;;5060949;28;19928;-73
2022/12/03 00:47:30;;;;;;;;;;;2.20;99.90;;;;;;5061723;28;19971;-73
2022/12/03 00:49:55;;;;;;;;;;;2.30;99.90;;;;;;5067481;28;19964;-72
2022/12/03 00:52:22;;;;;;;;;;;2.30;99.90;;;;;;5062027;28;19921;-73
2022/12/03 00:54:47;;;;;;;;;;;2.40;99.90;;;;;;5063045;28;20273;-73
2022/12/03 00:57:13;;;;;;;;;;;2.50;99.90;;;;;;5062267;28;20747;-73
2022/12/03 00:59:38;;;;;;;;;;;2.50;99.90;;;;;;5061107;28;20307;-73
2022/12/03 01:02:07;;;;;;;;;;;2.50;99.90;;;;;;5063267;28;19927;-72
2022/12/03 01:04:32;;;;;;;;;;;2.60;99.90;;;;;;5060553;28;20709;-72
2022/12/03 01:06:59;;;;;;;;;;;2.70;99.90;;;;;;5064346;28;19924;-71
2022/12/03 01:09:24;;;;;;;;;;;2.70;99.90;;;;;;5060809;28;19928;-71
2022/12/03 01:11:50;;;;;;;;;;;2.80;99.90;;;;;;5063108;28;19921;-72
2022/12/03 01:14:16;;;;;;;;;;;2.90;99.90;;;;;;5061875;28;20410;-72
2022/12/03 01:16:42;;;;;;;;;;;2.90;99.90;;;;;;5062363;28;19921;-72
2022/12/03 01:19:09;;;;;;;;;;;3.00;99.90;;;;;;5062072;28;19931;-72
2022/12/03 01:21:35;;;;;;;;;;;3.10;99.90;;;;;;5062657;28;19927;-72
2022/12/03 01:24:00;;;;;;;;;;;3.10;99.90;;;;;;5061859;28;19921;-72
2022/12/03 01:26:26;;;;;;;;;;;3.20;99.90;;;;;;5067121;28;19923;-72
2022/12/03 01:28:52;;;;;;;;;;;3.50;99.90;;;;;;5058682;28;19920;-71
2022/12/03 01:34:01;;;;;;;;;;;3.30;99.90;;;;;;5061593;28;19925;-73
2022/12/03 01:36:30;;;;;;;;;;;3.40;99.90;;;;;;5061863;28;19921;-72
2022/12/03 01:38:56;;;;;;;;;;;3.40;99.90;;;;;;5063014;28;19943;-73
2022/12/03 01:41:22;;;;;;;;;;;3.50;99.90;;;;;;5059919;28;20375;-72
2022/12/03 01:43:48;;;;;;;;;;;3.60;99.90;;;;;;5063734;28;19924;-72
2022/12/03 01:46:17;;;;;;;;;;;3.60;99.90;;;;;;5058953;28;19967;-72
2022/12/03 01:48:43;;;;;;;;;;;3.60;99.90;;;;;;5062850;28;20375;-72
2022/12/03 01:51:09;;;;;;;;;;;3.70;99.90;;;;;;5061487;28;19953;-72
2022/12/03 01:53:35;;;;;;;;;;;3.70;99.90;;;;;;5061472;28;20406;-72
2022/12/03 01:56:00;;;;;;;;;;;3.80;99.90;;;;;;5061441;28;19928;-72
2022/12/03 01:58:28;;;;;;;;;;;3.80;99.90;;;;;;5060641;28;19956;-72
2022/12/03 02:00:54;;;;;;;;;;;3.80;99.90;;;;;;5059139;28;19975;-72
2022/12/03 02:03:23;;;;;;;;;;;3.80;99.90;;;;;;5063790;28;20322;-72
2022/12/03 02:05:49;;;;;;;;;;;3.80;99.90;;;;;;5059625;28;20015;-72
2022/12/03 02:08:33;;;;;;;;;;;3.90;99.90;;;;;;5063127;28;19956;-71
2022/12/03 02:11:04;;;;;;;;;;;3.90;99.90;;;;;;5063497;28;20295;-72
2022/12/03 02:13:30;;;;;;;;;;;3.90;99.90;;;;;;5061862;28;19929;-72
2022/12/03 02:15:56;;;;;;;;;;;3.80;99.90;;;;;;5060689;28;20011;-72
2022/12/03 02:18:22;;;;;;;;;;;4.00;99.90;;;;;;5060993;28;19917;-72
2022/12/03 02:21:09;;;;;;;;;;;3.80;99.90;;;;;;5061037;28;19932;-72
2022/12/03 02:23:37;;;;;;;;;;;3.90;99.90;;;;;;5058120;28;19921;-72
2022/12/03 02:26:03;;;;;;;;;;;3.90;99.90;;;;;;5059435;28;19924;-72
2022/12/03 02:28:35;;;;;;;;;;;3.80;99.90;;;;;;5060934;28;19928;-72
2022/12/03 02:31:00;;;;;;;;;;;3.70;99.90;;;;;;5060205;28;20379;-72
2022/12/03 02:33:26;;;;;;;;;;;3.70;99.90;;;;;;5061671;28;19921;-72
2022/12/03 02:35:51;;;;;;;;;;;3.80;99.90;;;;;;5061207;28;20039;-72
2022/12/03 02:38:21;;;;;;;;;;;3.60;99.90;;;;;;5059795;28;19931;-72
2022/12/03 02:40:48;;;;;;;;;;;3.70;99.90;;;;;;5062293;28;19928;-72
2022/12/03 02:43:17;;;;;;;;;;;3.60;99.90;;;;;;5060026;28;19921;-72
2022/12/03 02:45:44;;;;;;;;;;;3.80;99.90;;;;;;5062793;28;19936;-71
2022/12/03 02:48:10;;;;;;;;;;;5.70;99.90;;;;;;5062665;28;19933;-71
2022/12/03 02:50:37;;;;;;;;;;;3.80;99.90;;;;;;5062343;28;19947;-71
2022/12/03 02:53:05;;;;;;;;;;;3.30;99.90;;;;;;5066065;28;19920;-72
2022/12/03 02:55:32;;;;;;;;;;;3.70;99.90;;;;;;5063831;28;20335;-71
2022/12/03 02:58:01;;;;;;;;;;;3.70;99.90;;;;;;5069954;28;20260;-71
2022/12/03 03:00:27;;;;;;;;;;;3.70;99.90;;;;;;5065598;28;19938;-72
2022/12/03 03:02:53;;;;;;;;;;;3.70;99.90;;;;;;5063338;28;19920;-72
2022/12/03 03:05:20;;;;;;;;;;;3.70;99.90;;;;;;5063490;28;20007;-72
2022/12/03 03:07:46;;;;;;;;;;;3.70;99.90;;;;;;5065900;28;19920;-72
2022/12/03 03:10:14;;;;;;;;;;;3.70;99.90;;;;;;5064910;28;19921;-72
2022/12/03 03:12:42;;;;;;;;;;;3.70;99.90;;;;;;5062300;28;20280;-71
2022/12/03 03:15:08;;;;;;;;;;;3.20;99.90;;;;;;5066393;28;19921;-71
2022/12/03 03:17:34;;;;;;;;;;;3.70;99.90;;;;;;5062774;28;19963;-71
2022/12/03 03:19:59;;;;;;;;;;;3.70;99.90;;;;;;5065822;28;19924;-71
2022/12/03 03:22:31;;;;;;;;;;;3.70;99.90;;;;;;5063988;28;20295;-71
2022/12/03 03:24:56;;;;;;;;;;;3.70;99.90;;;;;;5065545;28;20317;-71
2022/12/03 03:27:22;;;;;;;;;;;3.70;99.90;;;;;;5063020;28;20011;-71
2022/12/03 03:29:50;;;;;;;;;;;3.70;99.90;;;;;;5063375;28;19924;-71
2022/12/03 03:32:16;;;;;;;;;;;3.60;99.90;;;;;;5062503;28;19921;-72
2022/12/03 03:34:41;;;;;;;;;;;3.60;99.90;;;;;;5064569;28;20343;-72
2022/12/03 03:37:07;;;;;;;;;;;3.60;99.90;;;;;;5066143;28;19916;-72
2022/12/03 03:39:32;;;;;;;;;;;3.60;99.90;;;;;;5061219;28;19920;-71
2022/12/03 03:41:58;;;;;;;;;;;3.60;99.90;;;;;;5066453;28;20010;-71
2022/12/03 03:44:23;;;;;;;;;;;3.60;99.90;;;;;;5063222;28;19928;-71
2022/12/03 03:46:49;;;;;;;;;;;3.60;99.90;;;;;;5063817;28;19920;-71
2022/12/03 03:49:15;;;;;;;;;;;3.50;99.90;;;;;;5063878;28;19965;-71
2022/12/03 03:51:40;;;;;;;;;;;3.60;99.90;;;;;;5063890;28;19921;-72
2022/12/03 03:54:06;;;;;;;;;;;3.60;99.90;;;;;;5064624;28;20272;-72
2022/12/03 03:56:32;;;;;;;;;;;3.70;99.90;;;;;;5062083;28;19920;-72
2022/12/03 03:58:58;;;;;;;;;;;4.10;99.90;;;;;;5065841;28;19920;-72
2022/12/03 04:01:24;;;;;;;;;;;3.70;99.90;;;;;;5061580;28;19928;-71
2022/12/03 04:03:49;;;;;;;;;;;3.80;99.90;;;;;;5063939;28;19920;-71
2022/12/03 04:06:15;;;;;;;;;;;3.80;99.90;;;;;;5083706;28;20269;-71
2022/12/03 04:08:40;;;;;;;;;;;3.80;99.90;;;;;;5062747;28;19928;-71
2022/12/03 04:13:50;;;;;;;;;;;3.90;99.90;;;;;;5060397;28;20376;-71
2022/12/03 04:16:16;;;;;;;;;;;3.90;99.90;;;;;;5062896;28;20009;-71
2022/12/03 04:18:44;;;;;;;;;;;3.90;99.90;;;;;;5062823;28;19999;-71
2022/12/03 04:23:53;;;;;;;;;;;4.30;99.90;;;;;;5061777;28;19921;-71
2022/12/03 04:29:03;;;;;;;;;;;4.10;99.90;;;;;;5063305;28;19921;-71
2022/12/03 04:36:57;;;;;;;;;;;4.10;99.90;;;;;;5061737;28;19932;-71
2022/12/03 04:39:22;;;;;;;;;;;4.10;99.90;;;;;;5065227;28;20041;-71
2022/12/03 04:41:48;;;;;;;;;;;4.00;99.90;;;;;;5060084;28;19921;-71
2022/12/03 04:46:58;;;;;;;;;;;4.10;99.90;;;;;;5062893;28;19925;-71
2022/12/03 04:49:23;;;;;;;;;;;4.00;99.90;;;;;;5063437;28;20440;-71
2022/12/03 04:51:49;;;;;;;;;;;4.00;99.90;;;;;;5061128;28;19927;-71
2022/12/03 04:54:14;;;;;;;;;;;4.10;99.90;;;;;;5064753;28;19966;-71
2022/12/03 04:56:40;;;;;;;;;;;4.00;99.90;;;;;;5063169;28;19924;-72
2022/12/03 04:59:06;;;;;;;;;;;4.10;99.90;;;;;;5061981;28;19921;-72
2022/12/03 05:01:31;;;;;;;;;;;4.00;99.90;;;;;;5062757;28;20367;-71
2022/12/03 05:03:57;;;;;;;;;;;4.10;99.90;;;;;;5061385;28;20011;-71
2022/12/03 05:06:22;;;;;;;;;;;4.00;99.90;;;;;;5067165;28;19927;-71
2022/12/03 05:08:48;;;;;;;;;;;4.00;99.90;;;;;;5060743;28;19932;-71
2022/12/03 05:11:13;;;;;;;;;;;4.10;99.90;;;;;;5063263;28;19946;-71
2022/12/03 05:13:39;;;;;;;;;;;4.00;99.90;;;;;;5059795;28;19948;-71
2022/12/03 05:16:04;;;;;;;;;;;4.00;99.90;;;;;;5061749;28;19920;-71
2022/12/03 05:18:30;;;;;;;;;;;4.00;99.90;;;;;;5061039;28;19920;-71
2022/12/03 05:20:55;;;;;;;;;;;4.00;99.90;;;;;;5062727;28;19928;-71
2022/12/03 05:23:21;;;;;;;;;;;4.00;99.90;;;;;;5063645;28;20267;-72
2022/12/03 05:25:46;;;;;;;;;;;4.00;99.90;;;;;;5058730;28;19955;-71
2022/12/03 05:28:12;;;;;;;;;;;4.00;99.90;;;;;;5064058;28;20351;-71
2022/12/03 05:30:37;;;;;;;;;;;4.00;99.90;;;;;;5065055;28;20391;-71
2022/12/03 05:33:12;;;;;;;;;;;4.00;99.90;;;;;;5059991;28;19924;-71
2022/12/03 05:35:40;;;;;;;;;;;4.00;99.90;;;;;;5063565;28;20302;-71
2022/12/03 05:38:06;;;;;;;;;;;4.00;99.90;;;;;;5093312;28;19921;-71
2022/12/03 05:40:31;;;;;;;;;;;4.00;99.90;;;;;;5062852;28;19927;-72
2022/12/03 05:42:59;;;;;;;;;;;4.00;99.90;;;;;;5062582;28;19921;-71
2022/12/03 05:45:25;;;;;;;;;;;4.00;99.90;;;;;;5061307;28;19927;-71
2022/12/03 05:47:51;;;;;;;;;;;4.00;99.90;;;;;;5061410;28;19921;-71
2022/12/03 05:50:17;;;;;;;;;;;4.10;99.90;;;;;;5061552;28;19926;-71
2022/12/03 05:52:42;;;;;;;;;;;4.10;99.90;;;;;;5078625;28;19967;-72
2022/12/03 05:55:09;;;;;;;;;;;4.00;99.90;;;;;;5063701;28;20287;-71
2022/12/03 05:57:34;;;;;;;;;;;4.00;99.90;;;;;;5060341;28;20284;-71
2022/12/03 06:00:00;;;;;;;;;;;4.00;99.90;;;;;;5061782;28;19920;-72
2022/12/03 06:02:25;;;;;;;;;;;3.90;99.90;;;;;;5061193;28;19920;-72
2022/12/03 06:04:51;;;;;;;;;;;3.90;99.90;;;;;;5061614;28;19920;-71
2022/12/03 06:07:16;;;;;;;;;;;4.00;99.90;;;;;;5061979;28;19921;-71
2022/12/03 06:09:42;;;;;;;;;;;4.00;99.90;;;;;;5060162;28;19966;-71
2022/12/03 06:12:10;;;;;;;;;;;3.90;99.90;;;;;;5063874;28;20019;-71
2022/12/03 06:14:35;;;;;;;;;;;3.90;99.90;;;;;;5059214;28;19921;-71
2022/12/03 06:17:01;;;;;;;;;;;4.00;99.90;;;;;;5063552;28;20379;-72
2022/12/03 06:19:27;;;;;;;;;;;4.00;99.90;;;;;;5060361;28;19974;-71
2022/12/03 06:21:52;;;;;;;;;;;4.00;99.90;;;;;;5062313;28;19927;-72
2022/12/03 06:24:18;;;;;;;;;;;4.00;99.90;;;;;;5066148;28;20372;-72
2022/12/03 06:26:43;;;;;;;;;;;4.00;99.90;;;;;;5066327;28;19923;-72
2022/12/03 06:29:09;;;;;;;;;;;3.90;99.90;;;;;;5063377;28;19924;-72
2022/12/03 06:31:34;;;;;;;;;;;3.90;99.90;;;;;;5062906;28;19986;-72
2022/12/03 06:34:00;;;;;;;;;;;4.00;99.90;;;;;;5067432;28;19920;-72
2022/12/03 06:36:26;;;;;;;;;;;4.00;99.90;;;;;;5065407;28;19920;-72
2022/12/03 06:38:52;;;;;;;;;;;4.00;99.90;;;;;;5063856;28;19927;-72
2022/12/03 06:41:18;;;;;;;;;;;3.90;99.90;;;;;;5064458;28;19968;-72
2022/12/03 06:43:43;;;;;;;;;;;4.00;99.90;;;;;;5064321;28;19967;-72
2022/12/03 06:46:09;;;;;;;;;;;3.90;99.90;;;;;;5063428;28;20438;-72
2022/12/03 06:48:34;;;;;;;;;;;4.00;99.90;;;;;;5064944;28;19921;-72
2022/12/03 06:51:00;;;;;;;;;;;3.90;99.90;;;;;;5063097;28;19921;-72
2022/12/03 06:53:28;;;;;;;;;;;3.90;99.90;;;;;;5067098;28;20413;-72
2022/12/03 06:55:54;;;;;;;;;;;3.90;99.90;;;;;;5065405;28;19929;-72
2022/12/03 06:58:19;;;;;;;;;;;3.90;99.90;;;;;;5068466;28;19935;-72
2022/12/03 07:00:45;;;;;;;;;;;3.90;99.90;;;;;;5064866;28;19924;-72
2022/12/03 07:03:10;;;;;;;;;;;3.80;99.90;;;;;;5062991;28;19943;-72
2022/12/03 07:05:36;;;;;;;;;;;3.80;99.90;;;;;;5064330;28;19920;-72
2022/12/03 07:08:01;;;;;;;;;;;3.80;99.90;;;;;;5063878;28;19967;-72
2022/12/03 07:10:27;;;;;;;;;;;3.90;99.90;;;;;;5065926;28;19920;-72
2022/12/03 07:12:52;;;;;;;;;;;3.80;99.90;;;;;;5063925;28;19920;-72
2022/12/03 07:15:18;;;;;;;;;;;3.80;99.90;;;;;;5067347;28;20390;-72
2022/12/03 07:17:43;;;;;;;;;;;3.90;99.90;;;;;;5061849;28;19920;-73
2022/12/03 07:20:09;;;;;;;;;;;3.70;99.90;;;;;;5064728;28;20342;-72
2022/12/03 07:22:35;;;;;;;;;;;3.80;99.90;;;;;;5065187;28;19921;-72
2022/12/03 07:25:00;;;;;;;;;;;3.80;99.90;;;;;;5064386;28;19920;-72
2022/12/03 07:27:26;;;;;;;;;;;3.70;99.90;;;;;;5066472;28;19924;-72
2022/12/03 07:29:51;;;;;;;;;;;3.70;99.90;;;;;;5071541;28;20389;-72
2022/12/03 07:32:19;;;;;;;;;;;3.70;99.90;;;;;;5062008;28;19925;-72
2022/12/03 07:34:45;;;;;;;;;;;3.70;99.90;;;;;;5063615;28;20011;-73
2022/12/03 07:37:10;;;;;;;;;;;3.70;99.90;;;;;;5062048;28;19961;-73
2022/12/03 07:39:36;;;;;;;;;;;3.80;99.90;;;;;;5062429;28;19920;-71
2022/12/03 07:42:02;;;;;;;;;;;3.70;99.90;;;;;;5063998;28;20307;-71
2022/12/03 07:44:30;;;;;;;;;;;3.70;99.90;;;;;;5063517;28;19917;-71
2022/12/03 07:46:55;;;;;;;;;;;3.70;99.90;;;;;;5062880;28;19928;-72
2022/12/03 07:49:23;;;;;;;;;;;3.70;99.90;;;;;;5065463;28;19920;-70
2022/12/03 07:51:58;;;;;;;;;;;3.70;99.90;;;;;;5061839;28;19932;-70
2022/12/03 07:54:26;;;;;;;;;;;3.70;99.90;;;;;;5065754;28;19963;-70
2022/12/03 07:56:51;;;;;;;;;;;3.70;99.90;;;;;;5063614;28;20375;-71
2022/12/03 07:59:17;;;;;;;;;;;3.60;99.90;;;;;;5060089;28;20074;-71
2022/12/03 08:01:43;;;;;;;;;;;3.60;99.90;;;;;;5063331;28;20379;-71
2022/12/03 08:04:17;;;;;;;;;;;3.60;99.90;;;;;;5063062;28;19924;-71
2022/12/03 08:06:42;;;;;;;;;;;3.60;99.90;;;;;;5062760;28;19920;-71
2022/12/03 08:09:08;;;;;;;;;;;3.60;99.90;;;;;;5060592;28;20291;-71
2022/12/03 08:11:33;;;;;;;;;;;3.70;99.90;;;;;;5060572;28;19936;-71
2022/12/03 08:14:16;;;;;;;;;;;3.60;99.90;;;;;;5065038;28;19916;-71
2022/12/03 08:16:43;;;;;;;;;;;3.70;99.90;;;;;;5059383;28;19920;-71
2022/12/03 08:19:10;;;;;;;;;;;3.60;99.90;;;;;;5061718;28;19963;-71
2022/12/03 08:21:36;;;;;;;;;;;3.60;99.90;;;;;;5059744;28;19936;-71
2022/12/03 08:24:11;;;;;;;;;;;3.60;99.90;;;;;;5063430;28;19921;-71
2022/12/03 08:26:37;;;;;;;;;;;3.60;99.90;;;;;;5064941;28;20284;-71
2022/12/03 08:29:07;;;;;;;;;;;3.70;99.90;;;;;;5063499;28;19921;-71
2022/12/03 08:31:32;;;;;;;;;;;3.60;99.90;;;;;;5062314;28;19927;-71
2022/12/03 08:34:05;;;;;;;;;;;3.60;99.90;;;;;;5062372;28;19921;-71
2022/12/03 08:36:35;;;;;;;;;;;3.60;99.90;;;;;;5061436;28;19920;-71
2022/12/03 08:39:04;;;;;;;;;;;3.60;99.90;;;;;;5063805;28;19967;-71
2022/12/03 08:44:19;;;;;;;;;;;3.70;99.90;;;;;;5059820;28;19972;-71
2022/12/03 08:46:48;;;;;;;;;;;4.10;99.90;;;;;;5063632;28;19920;-71
2022/12/03 08:49:13;;;;;;;;;;;3.70;99.90;;;;;;5060587;28;20360;-71
2022/12/03 08:51:39;;;;;;;;;;;3.60;99.90;;;;;;5064092;28;19924;-71
2022/12/03 08:54:11;;;;;;;;;;;3.60;99.90;;;;;;5063429;28;19917;-72
2022/12/03 08:56:37;;;;;;;;;;;3.70;99.90;;;;;;5065808;28;19920;-72
2022/12/03 08:59:12;;;;;;;;;;;3.60;99.90;;;;;;5064802;28;19956;-71
2022/12/03 09:01:41;;;;;;;;;;;3.70;99.90;;;;;;5059162;28;19925;-72
2022/12/03 09:04:28;;;;;;;;;;;3.60;99.90;;;;;;5063006;28;19921;-73
2022/12/03 09:06:54;;;;;;;;;;;3.70;99.90;;;;;;5063400;28;19921;-72
2022/12/03 09:09:23;;;;;;;;;;;3.70;99.90;;;;;;5059675;28;19925;-77
2022/12/03 09:11:52;;;;;;;;;;;4.30;99.90;;;;;;5061438;28;19932;-81
2022/12/03 09:14:21;;;;;;;;;;;3.70;99.90;;;;;;5062488;28;20334;-86
2022/12/03 09:16:47;;;;;;;;;;;3.70;99.90;;;;;;5061381;28;20007;-76
2022/12/03 09:19:12;;;;;;;;;;;3.70;99.90;;;;;;5062309;28;19999;-71
2022/12/03 09:21:38;;;;;;;;;;;3.70;99.90;;;;;;5059963;28;19920;-78
2022/12/03 09:24:03;;;;;;;;;;;3.70;99.90;;;;;;5059163;28;19925;-76
2022/12/03 09:26:29;;;;;;;;;;;3.70;99.90;;;;;;5063493;28;19924;-79
2022/12/03 09:28:54;;;;;;;;;;;4.50;99.90;;;;;;5061473;28;20372;-75
2022/12/03 09:31:20;;;;;;;;;;;3.70;99.90;;;;;;5061558;28;20387;-74
2022/12/03 09:33:45;;;;;;;;;;;3.70;99.90;;;;;;5057570;28;19921;-79
2022/12/03 09:36:11;;;;;;;;;;;4.90;99.90;;;;;;5059808;28;19924;-74
2022/12/03 09:38:36;;;;;;;;;;;3.70;99.90;;;;;;5061110;28;19928;-73
2022/12/03 09:41:02;;;;;;;;;;;3.70;99.90;;;;;;5059300;28;19921;-72
2022/12/03 09:43:29;;;;;;;;;;;3.70;99.90;;;;;;5060858;28;19921;-73
2022/12/03 09:45:55;;;;;;;;;;;3.70;99.90;;;;;;5060263;28;19927;-74
2022/12/03 09:48:21;;;;;;;;;;;3.70;99.90;;;;;;5060461;28;21350;-75
2022/12/03 09:50:47;;;;;;;;;;;3.70;99.90;;;;;;5059842;28;20420;-72
2022/12/03 09:53:17;;;;;;;;;;;3.70;99.90;;;;;;5060408;28;19978;-73
2022/12/03 09:55:44;;;;;;;;;;;3.60;99.90;;;;;;5058697;28;19930;-71
2022/12/03 09:58:11;;;;;;;;;;;3.70;99.90;;;;;;5061327;28;19924;-75
2022/12/03 10:00:37;;;;;;;;;;;3.70;99.90;;;;;;5058606;28;19927;-69
2022/12/03 10:03:05;;;;;;;;;;;3.60;99.90;;;;;;5063839;28;19920;-76
2022/12/03 10:05:32;;;;;;;;;;;3.70;99.90;;;;;;5062986;28;19935;-79
2022/12/03 10:08:02;;;;;;;;;;;3.60;99.90;;;;;;5062760;28;19920;-74
2022/12/03 10:10:28;;;;;;;;;;;3.60;99.90;;;;;;5063196;28;20439;-74
2022/12/03 10:12:54;;;;;;;;;;;3.50;99.90;;;;;;5060901;28;20039;-75
2022/12/03 10:15:21;;;;;;;;;;;3.80;99.90;;;;;;5063047;28;20353;-74
2022/12/03 10:17:48;;;;;;;;;;;3.60;99.90;;;;;;5060852;28;19928;-76
2022/12/03 10:20:15;;;;;;;;;;;3.50;99.90;;;;;;5060692;28;20003;-76
2022/12/03 10:22:41;;;;;;;;;;;4.50;99.90;;;;;;5059900;28;19921;-74
2022/12/03 10:25:11;;;;;;;;;;;3.50;99.90;;;;;;5061281;28;20034;-75
2022/12/03 10:27:37;;;;;;;;;;;3.50;99.90;;;;;;5059885;28;19920;-71
2022/12/03 10:30:12;;;;;;;;;;;5.80;99.90;;;;;;5060141;28;19921;-74
2022/12/03 10:32:45;;;;;;;;;;;3.50;99.90;;;;;;5060886;28;20351;-73
2022/12/03 10:35:12;;;;;;;;;;;3.50;99.90;;;;;;5064036;28;19920;-78
2022/12/03 10:37:57;;;;;;;;;;;3.50;99.90;;;;;;5060637;28;20024;-77
2022/12/03 10:40:23;;;;;;;;;;;3.50;99.90;;;;;;5058555;28;19921;-75
2022/12/03 10:42:49;;;;;;;;;;;3.50;99.90;;;;;;5062837;28;19975;-79
2022/12/03 10:45:14;;;;;;;;;;;3.50;99.90;;;;;;5059017;28;20003;-81
2022/12/03 10:47:40;;;;;;;;;;;3.50;99.90;;;;;;5059414;28;19921;-84
2022/12/03 10:50:13;;;;;;;;;;;4.00;99.90;;;;;;5054254;28;20394;-75
2022/12/03 10:52:39;;;;;;;;;;;3.60;99.90;;;;;;5059278;28;19920;-77
2022/12/03 10:55:05;;;;;;;;;;;3.60;99.90;;;;;;5057598;28;19924;-73
2022/12/03 10:57:30;;;;;;;;;;;3.60;99.90;;;;;;5058311;28;19921;-73
2022/12/03 10:59:56;;;;;;;;;;;3.70;99.90;;;;;;5060568;28;19973;-76
2022/12/03 11:02:22;;;;;;;;;;;3.60;99.90;;;;;;5056706;28;19928;-83
2022/12/03 11:04:48;;;;;;;;;;;3.70;99.90;;;;;;5060957;28;20271;-86
2022/12/03 11:07:14;;;;;;;;;;;3.80;99.90;;;;;;5059251;28;19920;-71
2022/12/03 11:09:42;;;;;;;;;;;3.70;99.90;;;;;;5061078;28;19928;-77
2022/12/03 11:12:16;;;;;;;;;;;3.80;99.90;;;;;;5069746;28;20008;-82
2022/12/03 11:14:47;;;;;;;;;;;3.80;99.90;;;;;;5062147;28;20038;-76
2022/12/03 11:17:33;;;;;;;;;;;3.80;99.90;;;;;;5065035;28;20003;-79
2022/12/03 11:19:58;;;;;;;;;;;3.80;99.90;;;;;;5062882;28;19935;-88
2022/12/03 11:22:26;;;;;;;;;;;3.80;99.90;;;;;;5063426;28;19916;-78
2022/12/03 11:25:15;;;;;;;;;;;4.60;99.90;;;;;;5061296;28;19978;-82
2022/12/03 11:27:43;;;;;;;;;;;3.80;99.90;;;;;;5058966;28;20010;-86
2022/12/03 11:30:09;;;;;;;;;;;3.70;99.90;;;;;;5060307;28;19920;-79
2022/12/03 11:32:38;;;;;;;;;;;3.80;99.90;;;;;;5060815;28;19921;-78
2022/12/03 11:35:24;;;;;;;;;;;3.80;99.90;;;;;;5058279;28;20022;-75
2022/12/03 11:37:50;;;;;;;;;;;3.70;99.90;;;;;;5060018;28;20416;-78
2022/12/03 11:40:15;;;;;;;;;;;3.80;99.90;;;;;;5053909;28;20059;-71
2022/12/03 11:42:42;;;;;;;;;;;3.80;99.90;;;;;;5053405;28;19944;-73
2022/12/03 11:45:07;;;;;;;;;;;3.70;99.90;;;;;;5064027;28;19920;-74
2022/12/03 11:47:38;;;;;;;;;;;3.80;99.90;;;;;;5067846;28;19932;-78
2022/12/03 11:50:22;;;;;;;;;;;3.80;99.90;;;;;;5063204;28;20364;-79
2022/12/03 11:52:51;;;;;;;;;;;3.80;99.90;;;;;;5057600;28;19924;-80
2022/12/03 11:55:22;;;;;;;;;;;3.80;99.90;;;;;;5057837;28;19928;-81
2022/12/03 11:57:48;;;;;;;;;;;3.80;99.90;;;;;;5050438;28;19931;-81
2022/12/03 12:00:16;;;;;;;;;;;4.10;99.90;;;;;;5052737;28;19921;-79
2022/12/03 12:02:41;;;;;;;;;;;3.90;99.90;;;;;;5055379;28;20001;-77
2022/12/03 12:05:26;;;;;;;;;;;3.90;99.90;;;;;;5052858;28;20372;-76
2022/12/03 12:07:52;;;;;;;;;;;3.90;99.90;;;;;;5058915;28;20019;-76
2022/12/03 12:10:36;;;;;;;;;;;3.90;99.90;;;;;;5052779;28;20051;-77
2022/12/03 12:13:02;;;;;;;;;;;3.90;99.90;;;;;;5059820;28;19920;-78
2022/12/03 12:15:34;;;;;;;;;;;3.90;99.90;;;;;;5062668;28;19921;-78
2022/12/03 12:18:18;;;;;;;;;;;3.80;99.90;;;;;;5062925;28;19989;-77
2022/12/03 12:20:43;;;;;;;;;;;3.90;99.90;;;;;;5059257;28;19928;-78
2022/12/03 12:23:26;;;;;;;;;;;3.80;99.90;;;;;;5063370;28;19928;-77
2022/12/03 12:25:52;;;;;;;;;;;3.80;99.90;;;;;;5063271;28;19920;-77
2022/12/03 12:28:17;;;;;;;;;;;3.80;99.90;;;;;;5061272;28;20394;-76
2022/12/03 12:30:45;;;;;;;;;;;3.80;99.90;;;;;;5061923;28;19920;-77
2022/12/03 12:33:22;;;;;;;;;;;3.70;99.90;;;;;;5062870;28;19921;-77
2022/12/03 12:35:47;;;;;;;;;;;3.70;99.90;;;;;;5063075;28;20364;-76
2022/12/03 12:38:14;;;;;;;;;;;3.70;99.90;;;;;;5063220;28;19920;-76
2022/12/03 12:40:41;;;;;;;;;;;3.80;99.90;;;;;;5062506;28;19939;-76
2022/12/03 12:43:16;;;;;;;;;;;3.70;99.90;;;;;;5084748;28;19921;-75
2022/12/03 12:45:42;;;;;;;;;;;3.70;99.90;;;;;;5062782;28;19921;-76
2022/12/03 12:48:14;;;;;;;;;;;3.80;99.90;;;;;;5062633;28;20394;-78
2022/12/03 12:50:41;;;;;;;;;;;3.70;99.90;;;;;;5063757;28;20039;-79
2022/12/03 12:53:11;;;;;;;;;;;3.00;99.90;;;;;;5062581;28;19927;-78
2022/12/03 12:55:37;;;;;;;;;;;3.70;99.90;;;;;;5063371;28;19966;-77
2022/12/03 12:58:09;;;;;;;;;;;3.70;99.90;;;;;;5060587;28;19921;-77
2022/12/03 13:00:34;;;;;;;;;;;3.60;99.90;;;;;;5067333;28;19920;-77
2022/12/03 13:03:01;;;;;;;;;;;3.60;99.90;;;;;;5059539;28;19974;-77
2022/12/03 13:05:41;;;;;;;;;;;3.60;99.90;;;;;;5063472;28;19926;-77
2022/12/03 13:08:27;;;;;;;;;;;3.50;99.90;;;;;;5060964;28;19921;-79
2022/12/03 13:10:54;;;;;;;;;;;3.60;99.90;;;;;;5061913;28;19927;-77
2022/12/03 13:13:29;;;;;;;;;;;3.50;99.90;;;;;;5065827;28;19939;-77
2022/12/03 13:16:02;;;;;;;;;;;3.40;99.90;;;;;;5058726;28;19917;-76
2022/12/03 13:18:30;;;;;;;;;;;3.50;99.90;;;;;;5063909;28;19974;-77
2022/12/03 13:20:55;;;;;;;;;;;3.50;99.90;;;;;;5063754;28;20275;-77
2022/12/03 13:23:29;;;;;;;;;;;3.40;99.90;;;;;;5058840;28;20015;-77
2022/12/03 13:25:55;;;;;;;;;;;3.40;99.90;;;;;;5060750;28;19920;-77
2022/12/03 13:28:21;;;;;;;;;;;3.40;99.90;;;;;;5062120;28;20466;-77
2022/12/03 13:30:46;;;;;;;;;;;3.40;99.90;;;;;;5057289;28;20518;-77
2022/12/03 13:33:18;;;;;;;;;;;3.40;99.90;;;;;;5062906;28;19952;-77
2022/12/03 13:35:45;;;;;;;;;;;3.40;99.90;;;;;;5059214;28;19928;-77
2022/12/03 13:38:14;;;;;;;;;;;3.30;99.90;;;;;;5062528;28;20020;-77
2022/12/03 13:40:40;;;;;;;;;;;3.30;99.90;;;;;;5061037;28;19928;-77
2022/12/03 13:43:13;;;;;;;;;;;3.30;99.90;;;;;;5059379;28;19966;-77
2022/12/03 13:45:42;;;;;;;;;;;3.30;99.90;;;;;;5060968;28;19974;-77
2022/12/03 13:48:25;;;;;;;;;;;3.30;99.90;;;;;;5062866;28;20265;-77
2022/12/03 13:50:51;;;;;;;;;;;3.30;99.90;;;;;;5059232;28;19924;-77
2022/12/03 13:53:22;;;;;;;;;;;3.30;99.90;;;;;;5064098;28;20272;-78
2022/12/03 13:55:49;;;;;;;;;;;3.20;99.90;;;;;;5060090;28;19925;-77
2022/12/03 13:58:14;;;;;;;;;;;3.20;99.90;;;;;;5062406;28;20378;-77
2022/12/03 14:00:40;;;;;;;;;;;3.20;99.90;;;;;;5060572;28;19964;-77
2022/12/03 14:03:05;;;;;;;;;;;3.80;99.90;;;;;;5062439;28;19924;-77
2022/12/03 14:05:31;;;;;;;;;;;4.20;99.90;;;;;;5060471;28;19935;-75
2022/12/03 14:08:03;;;;;;;;;;;3.10;99.90;;;;;;5060817;28;19994;-86
2022/12/03 14:10:29;;;;;;;;;;;3.20;99.90;;;;;;5061052;28;19921;-80
2022/12/03 14:12:54;;;;;;;;;;;3.00;99.90;;;;;;5062144;28;19928;-76
2022/12/03 14:15:20;;;;;;;;;;;3.30;99.90;;;;;;5060396;28;19935;-74
2022/12/03 14:17:46;;;;;;;;;;;3.00;99.90;;;;;;5051552;28;19921;-74
2022/12/03 14:20:12;;;;;;;;;;;2.90;99.90;;;;;;5060902;28;19920;-75
2022/12/03 14:22:38;;;;;;;;;;;2.90;99.90;;;;;;5052112;28;19971;-73
2022/12/03 14:25:04;;;;;;;;;;;2.90;99.90;;;;;;5051886;28;19980;-74
2022/12/03 14:27:30;;;;;;;;;;;2.90;99.90;;;;;;5055005;28;20319;-76
2022/12/03 14:29:55;;;;;;;;;;;2.90;99.90;;;;;;5051317;28;19920;-74
2022/12/03 14:32:21;;;;;;;;;;;2.80;99.90;;;;;;5055407;28;19921;-75
2022/12/03 14:34:47;;;;;;;;;;;2.80;99.90;;;;;;5049614;28;20614;-80
2022/12/03 14:37:12;;;;;;;;;;;2.80;99.90;;;;;;5050666;28;19921;-81
2022/12/03 14:39:38;;;;;;;;;;;2.80;99.90;;;;;;5050881;28;19967;-82
2022/12/03 14:42:13;;;;;;;;;;;2.80;99.90;;;;;;5055348;28;19920;-80
2022/12/03 14:44:43;;;;;;;;;;;2.80;99.90;;;;;;5053123;28;19927;-76
2022/12/03 14:47:08;;;;;;;;;;;2.80;99.90;;;;;;5058836;28;19923;-74
2022/12/03 14:49:34;;;;;;;;;;;2.80;99.90;;;;;;5054878;28;20027;-77
2022/12/03 14:51:59;;;;;;;;;;;2.70;99.90;;;;;;5055653;28;19931;-78
2022/12/03 14:54:25;;;;;;;;;;;2.70;99.90;;;;;;5056821;28;19921;-79